Time;durP1;ratioP1;P1;durP2;ratioP2;P2;SDS_P1;SDS_P2;PMS_P1;PMS_P2;Temp;Humidity;BMP_temperature;BMP_pressure;BME280_temperature;BME280_humidity;BME280_pressure;Samples;Min_cycle;Max_cycle;Signal;HPM_P1;HPM_P2
2021/01/10 00:00:19;;;;;;;15.93;11.10;;;-0.20;99.90;;;;;;5029269;28;20174;-71
2021/01/10 00:02:45;;;;;;;24.33;16.83;;;-0.20;99.90;;;;;;5030330;28;20228;-71
2021/01/10 00:05:18;;;;;;;26.43;17.03;;;-0.20;99.90;;;;;;5030333;28;20448;-72
2021/01/10 00:07:44;;;;;;;23.07;14.30;;;-0.10;99.90;;;;;;5029489;28;20482;-73
2021/01/10 00:10:10;;;;;;;20.23;15.03;;;-0.10;99.90;;;;;;5030261;28;20517;-73
2021/01/10 00:12:36;;;;;;;21.40;13.70;;;0.00;99.90;;;;;;5030221;28;20649;-73
2021/01/10 00:15:06;;;;;;;21.30;13.40;;;0.00;99.90;;;;;;5030230;28;20508;-71
2021/01/10 00:17:32;;;;;;;20.70;15.40;;;0.10;99.90;;;;;;5030139;28;20906;-72
2021/01/10 00:19:58;;;;;;;20.47;14.97;;;0.10;99.90;;;;;;5029687;28;20420;-72
2021/01/10 00:22:23;;;;;;;16.20;13.03;;;0.10;99.90;;;;;;5030239;28;20451;-72
2021/01/10 00:24:49;;;;;;;17.40;13.00;;;0.00;99.90;;;;;;5030040;28;20232;-72
2021/01/10 00:27:17;;;;;;;16.40;12.07;;;0.00;99.90;;;;;;5030217;28;20209;-72
2021/01/10 00:29:46;;;;;;;22.90;15.33;;;-0.10;99.90;;;;;;5032704;28;20451;-72
2021/01/10 00:32:11;;;;;;;21.80;15.80;;;-0.20;99.90;;;;;;5034063;28;20820;-72
2021/01/10 00:34:37;;;;;;;20.20;14.77;;;-0.30;99.90;;;;;;5033734;28;20456;-71
2021/01/10 00:37:14;;;;;;;21.73;14.70;;;-0.40;99.90;;;;;;5033754;28;20206;-72
2021/01/10 00:39:44;;;;;;;18.73;13.30;;;-0.40;99.90;;;;;;5033005;28;20166;-73
2021/01/10 00:42:12;;;;;;;18.97;12.90;;;-0.40;99.90;;;;;;5033917;28;20413;-72
2021/01/10 00:44:39;;;;;;;21.60;14.13;;;-0.40;99.90;;;;;;5033860;28;20467;-73
2021/01/10 00:47:04;;;;;;;20.27;13.83;;;-0.50;99.90;;;;;;5033693;28;20895;-73
2021/01/10 00:49:30;;;;;;;17.60;13.03;;;-0.40;99.90;;;;;;5032960;28;20514;-72
2021/01/10 00:51:56;;;;;;;19.67;13.57;;;-0.40;99.90;;;;;;5033702;28;20178;-72
2021/01/10 00:54:21;;;;;;;17.27;12.03;;;-0.40;99.90;;;;;;5033548;28;20551;-71
2021/01/10 00:56:47;;;;;;;20.57;12.80;;;-0.40;99.90;;;;;;5033508;28;20205;-73
2021/01/10 00:59:13;;;;;;;18.80;12.23;;;-0.40;99.90;;;;;;5032809;28;20428;-73
2021/01/10 01:01:39;;;;;;;17.33;11.33;;;-0.40;99.90;;;;;;5033481;28;20175;-72
2021/01/10 01:04:04;;;;;;;20.73;11.17;;;-0.30;99.90;;;;;;5033370;28;20519;-72
2021/01/10 01:06:31;;;;;;;14.30;11.17;;;-0.30;99.90;;;;;;5033560;28;20217;-70
2021/01/10 01:08:56;;;;;;;20.10;13.20;;;-0.20;99.90;;;;;;5032656;28;20174;-71
2021/01/10 01:11:36;;;;;;;16.30;10.87;;;-0.20;99.90;;;;;;5033277;28;20922;-73
2021/01/10 01:14:03;;;;;;;15.67;11.00;;;-0.20;99.90;;;;;;5033225;28;20190;-72
2021/01/10 01:16:28;;;;;;;17.03;11.20;;;-0.10;99.90;;;;;;5033246;28;20534;-71
2021/01/10 01:18:54;;;;;;;19.57;13.00;;;-0.10;99.90;;;;;;5032580;28;20412;-73
2021/01/10 01:21:20;;;;;;;17.53;11.70;;;0.00;99.90;;;;;;5033232;28;20539;-72
2021/01/10 01:23:47;;;;;;;13.43;11.00;;;0.00;99.90;;;;;;5032981;28;20597;-73
2021/01/10 01:26:15;;;;;;;15.33;11.43;;;-0.10;99.90;;;;;;5033062;28;20478;-71
2021/01/10 01:28:43;;;;;;;16.57;12.50;;;-0.10;99.90;;;;;;5014392;28;20432;-72
2021/01/10 01:31:12;;;;;;;19.50;12.63;;;-0.10;99.90;;;;;;5032889;28;20419;-71
2021/01/10 01:33:38;;;;;;;17.57;12.73;;;-0.10;99.90;;;;;;5032568;28;20432;-72
2021/01/10 01:36:04;;;;;;;16.27;12.93;;;-0.10;99.90;;;;;;5032738;28;20456;-72
2021/01/10 01:38:29;;;;;;;17.70;12.70;;;-0.10;99.90;;;;;;5032053;28;20620;-71
2021/01/10 01:40:59;;;;;;;17.77;13.90;;;-0.20;99.90;;;;;;5032168;28;20428;-72
2021/01/10 01:43:25;;;;;;;20.07;15.60;;;-0.20;99.90;;;;;;5032651;28;20167;-73
2021/01/10 01:45:51;;;;;;;20.83;14.23;;;-0.20;99.90;;;;;;5032506;28;20448;-71
2021/01/10 01:48:16;;;;;;;20.17;14.10;;;-0.20;99.90;;;;;;5031943;28;20217;-72
2021/01/10 01:50:42;;;;;;;21.23;14.07;;;-0.30;99.90;;;;;;5032689;28;20170;-72
2021/01/10 01:53:08;;;;;;;20.60;13.73;;;-0.20;99.90;;;;;;5032494;28;20610;-71
2021/01/10 01:55:36;;;;;;;18.33;14.17;;;-0.30;99.90;;;;;;5032245;28;20209;-72
2021/01/10 01:58:06;;;;;;;18.73;14.43;;;-0.30;99.90;;;;;;5031620;28;20216;-72
2021/01/10 02:00:32;;;;;;;20.17;14.30;;;-0.30;99.90;;;;;;5032331;28;20977;-72
2021/01/10 02:02:57;;;;;;;21.03;15.03;;;-0.20;99.90;;;;;;5032371;28;20512;-71
2021/01/10 02:05:25;;;;;;;22.87;15.60;;;-0.20;99.90;;;;;;5032152;28;20436;-72
2021/01/10 02:07:57;;;;;;;17.30;14.37;;;-0.20;99.90;;;;;;5031510;28;20511;-71
2021/01/10 02:10:28;;;;;;;20.40;14.67;;;-0.20;99.90;;;;;;5032273;28;20732;-72
2021/01/10 02:12:58;;;;;;;22.30;14.57;;;-0.10;99.90;;;;;;5032183;28;20420;-71
2021/01/10 02:15:27;;;;;;;20.33;14.03;;;-0.20;99.90;;;;;;5031988;28;20495;-72
2021/01/10 02:17:54;;;;;;;24.50;16.37;;;-0.20;99.90;;;;;;5031197;28;20421;-71
2021/01/10 02:20:30;;;;;;;21.03;15.13;;;-0.10;99.90;;;;;;5032021;28;20428;-72
2021/01/10 02:23:00;;;;;;;22.70;14.97;;;-0.10;99.90;;;;;;5031929;28;20528;-73
2021/01/10 02:25:26;;;;;;;24.73;15.77;;;-0.10;99.90;;;;;;5031731;28;20560;-71
2021/01/10 02:27:52;;;;;;;20.97;16.03;;;-0.20;99.90;;;;;;5031047;28;20421;-71
2021/01/10 02:30:20;;;;;;;21.20;16.77;;;-0.20;99.90;;;;;;5031951;28;20464;-72
2021/01/10 02:32:51;;;;;;;20.83;15.90;;;-0.20;99.90;;;;;;5031520;28;20515;-72
2021/01/10 02:35:17;;;;;;;20.03;14.47;;;-0.20;99.90;;;;;;5031444;28;20500;-71
2021/01/10 02:38:10;;;;;;;21.23;16.03;;;-0.20;99.90;;;;;;5030790;28;20929;-72
2021/01/10 02:40:39;;;;;;;21.90;15.67;;;-0.10;99.90;;;;;;5031666;28;20413;-72
2021/01/10 02:43:26;;;;;;;24.60;16.33;;;-0.20;99.90;;;;;;5031494;28;20417;-72
2021/01/10 02:45:55;;;;;;;22.70;15.40;;;-0.20;99.90;;;;;;5031595;28;20444;-71
2021/01/10 02:48:21;;;;;;;21.20;14.17;;;-0.20;99.90;;;;;;5030827;28;20416;-72
2021/01/10 02:50:47;;;;;;;18.87;15.33;;;-0.20;99.90;;;;;;5031516;28;20837;-72
2021/01/10 02:53:12;;;;;;;19.37;15.30;;;-0.30;99.90;;;;;;5030579;28;20174;-70
2021/01/10 02:55:38;;;;;;;20.27;15.53;;;-0.40;99.90;;;;;;5031468;28;20210;-72
2021/01/10 02:58:10;;;;;;;19.00;15.70;;;-0.30;99.90;;;;;;5030872;28;20158;-72
2021/01/10 03:00:35;;;;;;;20.23;16.13;;;-0.40;99.90;;;;;;5031321;28;20162;-72
2021/01/10 03:03:02;;;;;;;21.23;15.93;;;-0.40;99.90;;;;;;5031193;28;20419;-70
2021/01/10 03:05:32;;;;;;;20.07;16.17;;;-0.40;99.90;;;;;;5031202;28;20269;-72
2021/01/10 03:07:58;;;;;;;20.97;15.03;;;-0.50;99.90;;;;;;5030461;28;20421;-71
2021/01/10 03:10:24;;;;;;;20.80;15.13;;;-0.60;99.90;;;;;;5031445;28;20425;-72
2021/01/10 03:12:50;;;;;;;23.60;15.80;;;-0.70;99.90;;;;;;5031088;28;20785;-72
2021/01/10 03:15:16;;;;;;;22.07;14.60;;;-0.60;99.90;;;;;;5031187;28;20694;-72
2021/01/10 03:17:47;;;;;;;20.80;14.90;;;-0.60;99.90;;;;;;5030174;28;20457;-71
2021/01/10 03:20:15;;;;;;;23.97;16.30;;;-0.70;99.90;;;;;;5030977;28;20253;-72
2021/01/10 03:22:42;;;;;;;17.83;14.67;;;-0.80;99.90;;;;;;5030842;28;20421;-72
2021/01/10 03:25:09;;;;;;;20.03;15.03;;;-0.90;99.90;;;;;;5030913;28;20444;-71
2021/01/10 03:27:36;;;;;;;22.73;15.87;;;-1.00;99.90;;;;;;5030627;28;20421;-71
2021/01/10 03:30:10;;;;;;;21.73;15.30;;;-1.10;99.90;;;;;;5030510;28;20424;-70
2021/01/10 03:32:36;;;;;;;23.27;14.90;;;-1.10;99.90;;;;;;5013072;28;20953;-72
2021/01/10 03:35:06;;;;;;;20.17;13.10;;;-1.10;99.90;;;;;;5030335;28;20464;-70
2021/01/10 03:37:33;;;;;;;25.17;17.40;;;-1.10;99.90;;;;;;5030406;28;20427;-71
2021/01/10 03:39:59;;;;;;;23.20;16.50;;;-1.20;99.90;;;;;;5029916;28;20421;-70
2021/01/10 03:42:25;;;;;;;22.43;16.50;;;-1.20;99.90;;;;;;5030640;28;20416;-72
2021/01/10 03:44:50;;;;;;;21.50;14.83;;;-1.20;99.90;;;;;;5030521;28;20949;-71
2021/01/10 03:47:16;;;;;;;19.13;13.73;;;-1.20;99.90;;;;;;5030624;28;20170;-71
2021/01/10 03:49:41;;;;;;;21.73;16.80;;;-1.20;99.90;;;;;;5029835;28;20200;-72
2021/01/10 03:52:07;;;;;;;22.97;15.33;;;-1.20;99.90;;;;;;5030614;28;20441;-71
2021/01/10 03:54:33;;;;;;;21.90;15.13;;;-1.10;99.90;;;;;;5030452;28;20671;-70
2021/01/10 03:56:58;;;;;;;19.50;14.13;;;-1.00;99.90;;;;;;5030636;28;20246;-71
2021/01/10 03:59:23;;;;;;;21.63;13.57;;;-0.90;99.90;;;;;;5029624;28;20177;-71
2021/01/10 04:01:49;;;;;;;20.97;15.10;;;-0.90;99.90;;;;;;5030364;28;20175;-72
2021/01/10 04:04:15;;;;;;;18.60;14.43;;;-0.80;99.90;;;;;;5033187;28;20190;-72
2021/01/10 04:06:40;;;;;;;21.63;15.07;;;-0.70;99.90;;;;;;5016728;28;20549;-70
2021/01/10 04:09:06;;;;;;;19.40;13.30;;;-0.80;99.90;;;;;;5033700;28;20170;-71
2021/01/10 04:11:31;;;;;;;23.50;15.23;;;-0.90;99.90;;;;;;5016302;28;20171;-71
2021/01/10 04:13:57;;;;;;;31.13;18.67;;;-1.00;99.90;;;;;;5034278;28;20194;-72
2021/01/10 04:16:22;;;;;;;43.63;24.13;;;-0.90;99.90;;;;;;5034175;28;20232;-70
2021/01/10 04:18:48;;;;;;;31.63;17.47;;;-0.90;99.90;;;;;;5033545;28;20166;-72
2021/01/10 04:21:13;;;;;;;26.60;18.47;;;-0.90;99.90;;;;;;5034222;28;20178;-71
2021/01/10 04:23:39;;;;;;;23.70;17.37;;;-0.90;99.90;;;;;;5034284;28;20174;-71
2021/01/10 04:26:05;;;;;;;22.10;14.97;;;-0.90;99.90;;;;;;5034299;28;20166;-70
2021/01/10 04:28:31;;;;;;;21.77;15.43;;;-1.00;99.90;;;;;;5033479;28;20171;-71
2021/01/10 04:30:57;;;;;;;23.33;16.17;;;-0.90;99.90;;;;;;5034113;28;20181;-71
2021/01/10 04:33:23;;;;;;;16.70;13.47;;;-0.90;99.90;;;;;;5033953;28;20636;-72
2021/01/10 04:35:49;;;;;;;21.80;15.13;;;-0.90;99.90;;;;;;5033734;28;20259;-71
2021/01/10 04:38:15;;;;;;;23.90;15.70;;;-0.90;99.90;;;;;;5033167;28;20419;-71
2021/01/10 04:40:41;;;;;;;23.10;15.17;;;-0.90;99.90;;;;;;5033804;28;20421;-71
2021/01/10 04:43:07;;;;;;;21.00;14.80;;;-0.80;99.90;;;;;;5033725;28;20759;-71
2021/01/10 04:45:32;;;;;;;25.97;15.70;;;-0.90;99.90;;;;;;5033577;28;20448;-71
2021/01/10 04:47:59;;;;;;;20.77;14.80;;;-1.00;99.90;;;;;;5033004;28;20182;-72
2021/01/10 04:50:25;;;;;;;23.53;14.37;;;-1.00;99.90;;;;;;5033705;28;20170;-71
2021/01/10 04:52:53;;;;;;;21.93;15.77;;;-0.90;99.90;;;;;;5015882;28;20436;-71
2021/01/10 04:55:20;;;;;;;17.03;13.20;;;-0.90;99.90;;;;;;5033488;28;20518;-71
2021/01/10 04:57:50;;;;;;;20.23;14.57;;;-0.90;99.90;;;;;;5032661;28;20424;-71
2021/01/10 05:00:16;;;;;;;19.27;14.90;;;-0.80;99.90;;;;;;5033712;28;20448;-72
2021/01/10 05:02:47;;;;;;;18.27;14.10;;;-0.80;99.90;;;;;;5033529;28;20413;-71
2021/01/10 05:05:14;;;;;;;22.80;16.00;;;-0.80;99.90;;;;;;5033404;28;20447;-71
2021/01/10 05:07:43;;;;;;;25.77;14.93;;;-0.70;99.90;;;;;;5032887;28;20420;-72
2021/01/10 05:10:09;;;;;;;22.73;15.70;;;-0.60;99.90;;;;;;5033287;28;20939;-72
2021/01/10 05:12:35;;;;;;;23.30;15.20;;;-0.60;99.90;;;;;;5033375;28;20423;-72
2021/01/10 05:15:00;;;;;;;20.17;13.90;;;-0.70;99.90;;;;;;5032317;28;20445;-71
2021/01/10 05:17:26;;;;;;;26.10;16.50;;;-0.80;99.90;;;;;;5033258;28;20177;-71
2021/01/10 05:19:52;;;;;;;20.93;14.70;;;-0.80;99.90;;;;;;5032349;28;20240;-71
2021/01/10 05:22:20;;;;;;;21.30;14.83;;;-0.90;99.90;;;;;;5033138;28;20163;-71
2021/01/10 05:24:48;;;;;;;20.37;14.40;;;-0.80;99.90;;;;;;5033011;28;20812;-71
2021/01/10 05:27:14;;;;;;;17.80;13.63;;;-0.80;99.90;;;;;;5033006;28;20425;-71
2021/01/10 05:29:43;;;;;;;22.43;16.30;;;-0.70;99.90;;;;;;5032134;28;20425;-71
2021/01/10 05:32:10;;;;;;;19.90;13.77;;;-0.60;99.90;;;;;;5015188;28;20549;-71
2021/01/10 05:34:35;;;;;;;19.03;13.20;;;-0.60;99.90;;;;;;5033304;28;20457;-70
2021/01/10 05:37:15;;;;;;;15.40;12.57;;;-0.50;99.90;;;;;;5032716;28;20468;-70
2021/01/10 05:39:45;;;;;;;16.63;12.60;;;-0.40;99.90;;;;;;5031980;28;20204;-71
2021/01/10 05:42:11;;;;;;;15.60;12.43;;;-0.40;99.90;;;;;;5032771;28;20423;-71
2021/01/10 05:44:40;;;;;;;16.90;12.27;;;-0.30;99.90;;;;;;5032579;28;20441;-70
2021/01/10 05:47:06;;;;;;;15.90;12.20;;;-0.40;99.90;;;;;;5032673;28;20421;-70
2021/01/10 05:49:32;;;;;;;18.60;11.93;;;-0.40;99.90;;;;;;5031707;28;20809;-71
2021/01/10 05:52:11;;;;;;;16.93;12.80;;;-0.40;99.90;;;;;;5032620;28;20421;-71
2021/01/10 05:54:38;;;;;;;16.40;11.70;;;-0.50;99.90;;;;;;5032490;28;20192;-70
2021/01/10 05:57:11;;;;;;;17.90;12.97;;;-0.50;99.90;;;;;;5032413;28;20809;-71
2021/01/10 05:59:49;;;;;;;15.97;12.00;;;-0.40;99.90;;;;;;5013898;28;20425;-70
2021/01/10 06:02:26;;;;;;;15.60;11.70;;;-0.40;99.90;;;;;;5032455;28;20539;-71
2021/01/10 06:05:06;;;;;;;15.63;11.17;;;-0.40;99.90;;;;;;5032406;28;20433;-71
2021/01/10 06:07:32;;;;;;;20.83;12.57;;;-0.30;99.90;;;;;;5032165;28;20417;-71
2021/01/10 06:09:57;;;;;;;17.37;12.73;;;-0.30;99.90;;;;;;5031619;28;20431;-71
2021/01/10 06:12:23;;;;;;;17.40;12.13;;;-0.30;99.90;;;;;;5032281;28;20177;-71
2021/01/10 06:14:50;;;;;;;14.87;11.43;;;-0.40;99.90;;;;;;5032260;28;20194;-71
2021/01/10 06:17:17;;;;;;;18.60;13.00;;;-0.40;99.90;;;;;;5032025;28;20463;-71
2021/01/10 06:19:45;;;;;;;15.80;11.90;;;-0.40;99.90;;;;;;5031377;28;20934;-70
2021/01/10 06:22:16;;;;;;;17.60;12.10;;;-0.30;99.90;;;;;;5032010;28;20417;-70
2021/01/10 06:24:45;;;;;;;15.47;12.03;;;-0.30;99.90;;;;;;5031952;28;20498;-71
2021/01/10 06:27:20;;;;;;;13.90;11.53;;;-0.30;99.90;;;;;;5031794;28;20422;-71
2021/01/10 06:29:53;;;;;;;15.70;12.10;;;-0.40;99.90;;;;;;5031120;28;20424;-71
2021/01/10 06:32:22;;;;;;;17.60;12.10;;;-0.40;99.90;;;;;;5032014;28;20478;-71
2021/01/10 06:34:49;;;;;;;15.20;11.47;;;-0.30;99.90;;;;;;5031705;28;20464;-71
2021/01/10 06:37:15;;;;;;;14.87;11.30;;;-0.40;99.90;;;;;;5031814;28;20822;-70
2021/01/10 06:39:46;;;;;;;14.37;11.37;;;-0.50;99.90;;;;;;5030920;28;20417;-70
2021/01/10 06:42:13;;;;;;;14.50;9.70;;;-0.50;99.90;;;;;;5031916;28;20440;-70
2021/01/10 06:44:41;;;;;;;12.73;10.80;;;-0.60;99.90;;;;;;5013922;28;20444;-71
2021/01/10 06:47:15;;;;;;;14.47;10.97;;;-0.60;99.90;;;;;;5031677;28;20869;-71
2021/01/10 06:49:40;;;;;;;16.00;10.57;;;-0.50;99.90;;;;;;5030783;28;20872;-70
2021/01/10 06:52:09;;;;;;;13.90;10.17;;;-0.50;99.90;;;;;;5031580;28;20452;-70
2021/01/10 06:54:44;;;;;;;14.27;9.83;;;-0.50;99.90;;;;;;5031379;28;20252;-70
2021/01/10 06:57:09;;;;;;;10.20;8.03;;;-0.50;99.90;;;;;;5031360;28;20470;-71
2021/01/10 07:00:03;;;;;;;9.47;7.20;;;-0.40;99.90;;;;;;5030556;28;20922;-70
2021/01/10 07:02:29;;;;;;;9.63;7.50;;;-0.30;99.90;;;;;;5031223;28;20178;-70
2021/01/10 07:04:55;;;;;;;13.00;9.50;;;-0.30;99.90;;;;;;5013447;28;20852;-71
2021/01/10 07:07:31;;;;;;;17.27;11.60;;;-0.40;99.90;;;;;;5031144;28;20181;-70
2021/01/10 07:09:57;;;;;;;13.43;9.37;;;-0.50;99.90;;;;;;5030509;28;20506;-69
2021/01/10 07:12:23;;;;;;;14.67;11.13;;;-0.40;99.90;;;;;;5031018;28;20486;-70
2021/01/10 07:14:48;;;;;;;18.57;12.13;;;-0.30;99.90;;;;;;5030848;28;20201;-70
2021/01/10 07:17:16;;;;;;;15.20;11.73;;;-0.30;99.90;;;;;;5030525;28;20924;-71
2021/01/10 07:19:44;;;;;;;15.57;11.53;;;-0.30;99.90;;;;;;5029870;28;20258;-71
2021/01/10 07:22:24;;;;;;;16.53;11.23;;;-0.30;99.90;;;;;;5030622;28;20419;-72
2021/01/10 07:24:49;;;;;;;19.73;10.77;;;-0.30;99.90;;;;;;5030495;28;20491;-71
2021/01/10 07:27:33;;;;;;;16.50;11.73;;;-0.30;99.90;;;;;;5030705;28;20457;-70
2021/01/10 07:30:23;;;;;;;18.97;11.90;;;-0.40;99.90;;;;;;5030074;28;20588;-71
2021/01/10 07:32:49;;;;;;;17.10;12.30;;;-0.40;99.90;;;;;;5030684;28;20413;-71
2021/01/10 07:35:15;;;;;;;16.87;11.47;;;-0.40;99.90;;;;;;5030422;28;21016;-71
2021/01/10 07:37:41;;;;;;;13.60;11.10;;;-0.40;99.90;;;;;;5029257;28;20906;-71
2021/01/10 07:40:08;;;;;;;17.80;12.23;;;-0.30;99.90;;;;;;5030714;28;20162;-71
2021/01/10 07:42:38;;;;;;;13.37;10.50;;;-0.30;99.90;;;;;;5030611;28;20444;-71
2021/01/10 07:45:17;;;;;;;17.20;11.70;;;-0.20;99.90;;;;;;5030544;28;20472;-72
2021/01/10 07:47:45;;;;;;;19.47;14.63;;;-0.30;99.90;;;;;;5029715;28;20428;-71
2021/01/10 07:50:16;;;;;;;21.97;16.37;;;-0.20;99.90;;;;;;5030479;28;20413;-71
2021/01/10 07:52:42;;;;;;;16.97;13.67;;;-0.20;99.90;;;;;;5030454;28;20419;-71
2021/01/10 07:55:18;;;;;;;20.27;13.50;;;-0.30;99.90;;;;;;5030302;28;20787;-71
2021/01/10 07:58:04;;;;;;;18.43;13.03;;;-0.30;99.90;;;;;;5011815;28;20312;-71
2021/01/10 08:00:47;;;;;;;16.43;11.63;;;-0.20;99.90;;;;;;5016019;28;20519;-71
2021/01/10 08:03:20;;;;;;;17.47;13.60;;;0.00;99.90;;;;;;5030422;28;20409;-71
2021/01/10 08:05:59;;;;;;;21.20;13.10;;;-0.10;99.90;;;;;;5030278;28;20433;-71
2021/01/10 08:08:40;;;;;;;16.30;13.60;;;0.00;99.90;;;;;;5029588;28;20824;-71
2021/01/10 08:11:07;;;;;;;20.93;13.07;;;0.10;99.90;;;;;;5030338;28;20420;-71
2021/01/10 08:13:41;;;;;;;20.30;12.93;;;0.20;99.90;;;;;;5030211;28;20422;-71
2021/01/10 08:16:28;;;;;;;18.97;13.60;;;0.30;99.90;;;;;;5012466;28;20456;-71
2021/01/10 08:18:54;;;;;;;20.40;12.67;;;0.20;99.90;;;;;;5029524;28;20449;-72
2021/01/10 08:21:20;;;;;;;18.23;13.60;;;0.20;99.90;;;;;;5030205;28;20442;-71
2021/01/10 08:23:52;;;;;;;15.37;11.77;;;0.10;99.90;;;;;;5030118;28;20200;-71
2021/01/10 08:26:18;;;;;;;16.37;11.97;;;0.20;99.90;;;;;;5030383;28;20159;-72
2021/01/10 08:28:48;;;;;;;19.23;12.30;;;0.20;99.90;;;;;;5029589;28;20413;-71
2021/01/10 08:31:16;;;;;;;13.77;10.43;;;0.20;99.90;;;;;;5030335;28;20413;-71
2021/01/10 08:33:42;;;;;;;17.60;13.47;;;0.20;99.90;;;;;;5029903;28;20425;-71
2021/01/10 08:36:18;;;;;;;19.27;10.53;;;0.40;99.90;;;;;;5030104;28;20591;-71
2021/01/10 08:38:56;;;;;;;16.10;11.20;;;0.60;99.90;;;;;;5029385;28;20928;-71
2021/01/10 08:41:26;;;;;;;13.97;11.60;;;0.60;99.90;;;;;;5030001;28;20424;-72
2021/01/10 08:43:59;;;;;;;19.97;13.23;;;0.50;99.90;;;;;;5029876;28;20499;-71
2021/01/10 08:46:27;;;;;;;20.27;14.00;;;0.70;99.90;;;;;;5029982;28;20417;-71
2021/01/10 08:48:52;;;;;;;17.53;11.77;;;0.90;99.90;;;;;;5011940;28;20425;-71
2021/01/10 08:51:39;;;;;;;15.43;11.57;;;1.00;99.90;;;;;;5033863;28;20428;-71
2021/01/10 08:54:08;;;;;;;15.20;12.33;;;1.20;99.90;;;;;;5033664;28;20191;-71
2021/01/10 08:56:35;;;;;;;14.70;11.53;;;1.20;99.90;;;;;;5033575;28;21045;-71
2021/01/10 08:59:00;;;;;;;16.07;12.27;;;1.10;99.90;;;;;;5032937;28;20809;-71
2021/01/10 09:01:27;;;;;;;16.97;12.20;;;1.20;99.90;;;;;;5033786;28;20987;-71
2021/01/10 09:03:56;;;;;;;14.67;11.83;;;1.50;99.90;;;;;;5033682;28;20174;-71
2021/01/10 09:06:48;;;;;;;15.83;12.50;;;2.00;99.90;;;;;;5033705;28;20428;-69
2021/01/10 09:09:32;;;;;;;20.10;14.27;;;2.60;99.90;;;;;;5022297;28;20599;-72
2021/01/10 09:12:18;;;;;;;14.30;10.90;;;3.00;99.90;;;;;;5033573;28;20865;-72
2021/01/10 09:15:18;;;;;;;12.77;10.87;;;4.60;99.90;;;;;;5033659;28;20436;-69
2021/01/10 09:17:47;;;;;;;16.33;12.20;;;5.00;99.90;;;;;;5032718;28;20948;-71
2021/01/10 09:20:17;;;;;;;16.53;11.50;;;4.90;99.90;;;;;;5033497;28;20942;-70
2021/01/10 09:22:43;;;;;;;15.07;12.43;;;6.00;99.90;;;;;;5015557;28;20781;-70
2021/01/10 09:25:10;;;;;;;14.57;11.97;;;6.50;99.90;;;;;;5033112;28;20432;-70
2021/01/10 09:27:37;;;;;;;14.53;12.13;;;7.50;99.90;;;;;;5032383;28;20189;-70
2021/01/10 09:30:07;;;;;;;13.60;10.93;;;8.60;99.90;;;;;;5032604;28;20761;-70
2021/01/10 09:32:33;;;;;;;13.03;11.43;;;8.80;99.90;;;;;;5032933;28;20424;-70
2021/01/10 09:35:00;;;;;;;11.90;10.40;;;8.40;99.90;;;;;;5032745;28;20599;-70
2021/01/10 09:37:30;;;;;;;13.60;11.77;;;8.50;99.90;;;;;;5032695;28;20537;-70
2021/01/10 09:40:09;;;;;;;11.80;10.40;;;7.50;99.90;;;;;;5032181;28;20421;-70
2021/01/10 09:42:42;;;;;;;11.80;9.90;;;6.50;99.90;;;;;;5032726;28;20448;-69
2021/01/10 09:45:09;;;;;;;12.20;10.53;;;6.40;99.90;;;;;;5032529;28;20449;-70
2021/01/10 09:47:35;;;;;;;12.53;9.90;;;6.70;99.90;;;;;;5032332;28;20421;-70
2021/01/10 09:50:08;;;;;;;11.90;10.73;;;8.00;99.90;;;;;;5032328;28;20437;-70
2021/01/10 09:52:51;;;;;;;11.30;9.30;;;9.00;99.50;;;;;;5032640;28;20635;-70
2021/01/10 09:55:27;;;;;;;12.67;11.27;;;10.60;96.70;;;;;;5032438;28;20761;-70
2021/01/10 09:57:55;;;;;;;11.80;10.67;;;11.70;91.80;;;;;;5013853;28;20539;-70
2021/01/10 10:00:21;;;;;;;11.47;10.40;;;12.90;87.00;;;;;;5032267;28;20428;-70
2021/01/10 10:02:47;;;;;;;11.87;10.77;;;14.20;77.80;;;;;;5032035;28;20409;-70
2021/01/10 10:05:22;;;;;;;11.03;10.03;;;15.00;70.10;;;;;;5032152;28;20437;-70
2021/01/10 10:07:49;;;;;;;13.03;11.93;;;15.70;65.50;;;;;;5031332;28;20565;-70
2021/01/10 10:10:18;;;;;;;12.00;10.90;;;16.50;62.10;;;;;;5032345;28;20534;-70
2021/01/10 10:13:01;;;;;;;11.97;10.80;;;16.20;58.30;;;;;;5032094;28;20938;-71
2021/01/10 10:15:51;;;;;;;13.43;12.00;;;16.70;56.80;;;;;;5031891;28;20457;-70
2021/01/10 10:18:19;;;;;;;11.97;10.87;;;17.10;55.70;;;;;;5031507;28;20425;-70
2021/01/10 10:20:45;;;;;;;10.80;9.87;;;17.20;53.80;;;;;;5031933;28;20420;-70
2021/01/10 10:23:13;;;;;;;12.13;11.03;;;17.60;52.70;;;;;;5031982;28;20414;-70
2021/01/10 10:25:40;;;;;;;12.70;11.60;;;17.30;52.70;;;;;;5031669;28;20463;-70
2021/01/10 10:28:06;;;;;;;10.90;10.00;;;17.50;51.40;;;;;;5031139;28;20794;-70
2021/01/10 10:30:32;;;;;;;11.47;10.27;;;16.90;51.10;;;;;;5031864;28;20428;-70
2021/01/10 10:32:58;;;;;;;10.97;9.87;;;16.80;51.40;;;;;;5031864;28;20405;-70
2021/01/10 10:35:24;;;;;;;11.90;10.80;;;16.80;51.60;;;;;;5031424;28;20473;-70
2021/01/10 10:37:50;;;;;;;11.13;10.13;;;17.50;51.10;;;;;;5030833;28;20482;-70
2021/01/10 10:40:17;;;;;;;11.63;10.63;;;17.20;50.10;;;;;;5031699;28;20425;-70
2021/01/10 10:42:42;;;;;;;12.13;11.13;;;17.10;50.60;;;;;;5031609;28;20447;-70
2021/01/10 10:45:09;;;;;;;12.00;11.00;;;17.90;49.60;;;;;;5031543;28;20528;-70
2021/01/10 10:47:35;;;;;;;14.40;13.00;;;18.30;49.20;;;;;;5031299;28;20205;-70
2021/01/10 10:50:00;;;;;;;12.87;11.77;;;19.40;47.70;;;;;;5031074;28;20461;-70
2021/01/10 10:52:26;;;;;;;10.87;9.97;;;18.30;46.90;;;;;;5031401;28;20474;-71
2021/01/10 10:54:51;;;;;;;10.30;9.40;;;18.70;48.10;;;;;;5031346;28;20202;-70
2021/01/10 10:57:17;;;;;;;12.37;11.37;;;19.00;47.50;;;;;;5031175;28;20675;-70
2021/01/10 10:59:43;;;;;;;11.57;10.57;;;19.20;46.50;;;;;;5030585;28;20181;-70
2021/01/10 11:02:09;;;;;;;12.10;11.00;;;19.70;46.00;;;;;;5031313;28;20261;-70
2021/01/10 11:04:39;;;;;;;13.03;11.87;;;21.00;44.80;;;;;;5031191;28;20202;-70
2021/01/10 11:07:05;;;;;;;11.67;10.57;;;19.90;44.60;;;;;;5031100;28;20563;-69
2021/01/10 11:09:31;;;;;;;11.20;10.30;;;18.40;45.50;;;;;;5030168;28;20420;-69
2021/01/10 11:11:57;;;;;;;13.83;12.60;;;17.40;46.90;;;;;;5030838;28;20451;-69
2021/01/10 11:14:22;;;;;;;13.43;12.13;;;14.90;49.00;;;;;;5030102;28;20247;-69
2021/01/10 11:16:50;;;;;;;12.20;11.10;;;15.40;51.00;;;;;;5030879;28;20320;-70
2021/01/10 11:19:15;;;;;;;11.27;10.37;;;17.30;48.90;;;;;;5030135;28;20166;-70
2021/01/10 11:21:43;;;;;;;12.77;11.67;;;18.80;47.00;;;;;;5030640;28;20789;-70
2021/01/10 11:24:10;;;;;;;13.10;11.90;;;18.80;46.10;;;;;;5030765;28;20243;-70
2021/01/10 11:26:37;;;;;;;12.17;11.17;;;19.00;45.90;;;;;;5030830;28;20424;-70
2021/01/10 11:29:04;;;;;;;12.00;11.03;;;18.90;45.80;;;;;;5030192;28;20507;-70
2021/01/10 11:31:32;;;;;;;11.57;10.57;;;18.00;45.80;;;;;;5030873;28;20417;-70
2021/01/10 11:34:16;;;;;;;10.97;9.97;;;15.90;48.20;;;;;;5030662;28;20456;-70
2021/01/10 11:36:47;;;;;;;12.70;11.13;;;15.60;50.00;;;;;;5030705;28;20456;-70
2021/01/10 11:39:14;;;;;;;12.17;11.17;;;15.60;50.10;;;;;;5030052;28;20413;-70
2021/01/10 11:41:54;;;;;;;13.33;12.03;;;16.00;49.50;;;;;;5030483;28;20424;-70
2021/01/10 11:44:22;;;;;;;17.50;15.70;;;15.80;49.70;;;;;;5030622;28;20926;-70
2021/01/10 11:46:50;;;;;;;14.10;12.60;;;14.00;50.80;;;;;;5012793;28;20833;-69
2021/01/10 11:49:16;;;;;;;11.20;10.10;;;12.50;54.10;;;;;;5029787;28;20424;-70
2021/01/10 11:51:43;;;;;;;12.60;11.30;;;12.50;55.30;;;;;;5030374;28;20965;-70
2021/01/10 11:54:12;;;;;;;11.90;10.77;;;12.20;55.40;;;;;;5030386;28;20436;-69
2021/01/10 11:56:41;;;;;;;11.17;10.07;;;11.50;56.40;;;;;;5030446;28;20461;-70
2021/01/10 11:59:07;;;;;;;11.00;9.97;;;11.40;59.10;;;;;;5029719;28;20413;-70
2021/01/10 12:01:37;;;;;;;12.33;11.07;;;12.10;56.40;;;;;;5028580;28;20417;-70
2021/01/10 12:04:04;;;;;;;12.70;11.40;;;13.30;55.90;;;;;;5030281;28;20856;-70
2021/01/10 12:06:31;;;;;;;12.40;11.20;;;15.40;52.90;;;;;;5030355;28;20516;-70
2021/01/10 12:08:56;;;;;;;9.77;8.97;;;16.20;49.70;;;;;;5029600;28;20911;-70
2021/01/10 12:11:22;;;;;;;9.80;8.93;;;15.90;50.00;;;;;;5030223;28;20412;-70
2021/01/10 12:13:48;;;;;;;12.37;11.27;;;16.10;49.40;;;;;;5030232;28;20249;-71
2021/01/10 12:16:15;;;;;;;11.57;10.13;;;16.60;49.70;;;;;;5030171;28;20569;-70
2021/01/10 12:18:41;;;;;;;10.30;9.50;;;17.10;48.10;;;;;;5029433;28;20224;-71
2021/01/10 12:21:11;;;;;;;11.50;10.40;;;16.70;48.70;;;;;;5012459;28;20803;-70
2021/01/10 12:23:38;;;;;;;11.70;10.70;;;17.30;48.00;;;;;;5030133;28;20752;-70
2021/01/10 12:26:11;;;;;;;11.87;10.87;;;16.30;48.30;;;;;;5033965;28;20428;-70
2021/01/10 12:28:37;;;;;;;12.63;11.33;;;13.60;51.50;;;;;;5033421;28;20783;-69
2021/01/10 12:31:04;;;;;;;11.33;10.27;;;12.70;54.20;;;;;;5034103;28;20427;-70
2021/01/10 12:33:31;;;;;;;11.50;10.30;;;12.10;55.80;;;;;;5033861;28;20781;-70
2021/01/10 12:35:56;;;;;;;9.30;8.50;;;11.20;57.40;;;;;;5033740;28;20518;-70
2021/01/10 12:38:22;;;;;;;10.33;9.33;;;10.50;58.60;;;;;;5033245;28;20412;-70